Terminal Aerodrome Forecast
Issued by NWS Wilmington, NC

Home | Current Version | Previous Version | Text Only | Print | Product List | Glossary On
Versions: 1 2 3 4 5 6 7 8 9 10 11 12 13 14 15 16 17
000
FTUS42 KILM 072320
TAFLBT
TAF
KLBT 072320Z 0800/0824 33008KT P6SM SCT060 BKN120
     FM080300 31006KT P6SM SCT250
     FM081100 27003KT P6SM FEW250
     FM081800 22012KT P6SM BKN250
      TEMPO 0820/0822 5SM -SHRA BKN050=

USA.gov is the U.S. government's official web portal to all federal, state and local government web resources and services.